createdAt,value
2019-03-22T00:00:14.875Z,7.12
2019-03-22T00:01:14.892Z,7.12
2019-03-22T00:02:14.858Z,7.12
2019-03-22T00:03:14.871Z,7.12
2019-03-22T00:04:14.978Z,7.12
2019-03-22T00:05:14.858Z,7.12
2019-03-22T00:06:15.075Z,7.12
2019-03-22T00:07:14.927Z,7.06
2019-03-22T00:08:14.877Z,7.06
2019-03-22T00:09:14.848Z,7.06
2019-03-22T00:10:14.865Z,7
2019-03-22T00:11:14.862Z,7
2019-03-22T00:12:14.852Z,6.94
2019-03-22T00:13:14.851Z,6.94
2019-03-22T00:14:14.874Z,6.94
2019-03-22T00:15:14.858Z,6.87
2019-03-22T00:16:14.851Z,6.87
2019-03-22T00:17:14.844Z,6.94
2019-03-22T00:18:14.895Z,6.94
2019-03-22T00:19:14.887Z,6.94
2019-03-22T00:20:14.830Z,6.94
2019-03-22T00:21:14.857Z,6.94
2019-03-22T00:22:14.860Z,6.94
2019-03-22T00:23:14.903Z,6.94
2019-03-22T00:24:14.846Z,6.87
2019-03-22T00:25:14.854Z,6.87
2019-03-22T00:26:14.849Z,6.87
2019-03-22T00:27:17.225Z,6.87
2019-03-22T00:28:15.042Z,6.87
2019-03-22T00:29:14.867Z,6.87
2019-03-22T00:30:14.830Z,6.81
2019-03-22T00:31:14.844Z,6.81
2019-03-22T00:32:14.834Z,6.81
2019-03-22T00:33:14.841Z,6.75
2019-03-22T00:34:14.879Z,6.75
2019-03-22T00:35:14.949Z,6.75
2019-03-22T00:36:14.820Z,6.69
2019-03-22T00:37:14.816Z,6.69
2019-03-22T00:38:14.841Z,6.69
2019-03-22T00:39:14.844Z,6.69
2019-03-22T00:40:14.921Z,6.62
2019-03-22T00:41:14.845Z,6.62
2019-03-22T00:42:14.818Z,6.62
2019-03-22T00:43:14.832Z,6.56
2019-03-22T00:44:14.860Z,6.56
2019-03-22T00:45:14.875Z,6.56
2019-03-22T00:46:14.907Z,6.56
2019-03-22T00:47:14.792Z,6.56
2019-03-22T00:48:14.811Z,6.56
2019-03-22T00:49:14.921Z,6.56
2019-03-22T00:50:14.836Z,6.5
2019-03-22T00:51:14.806Z,6.44
2019-03-22T00:52:14.792Z,6.44
2019-03-22T00:53:14.868Z,6.44
2019-03-22T00:54:14.831Z,6.37
2019-03-22T00:55:14.847Z,6.31
2019-03-22T00:56:14.790Z,6.31
2019-03-22T00:57:14.862Z,6.31
2019-03-22T00:58:14.773Z,6.25
2019-03-22T00:59:14.799Z,6.19
2019-03-22T01:00:14.812Z,6.19
2019-03-22T01:01:14.826Z,6.19
2019-03-22T01:02:14.826Z,6.19
2019-03-22T01:03:14.856Z,6.19
2019-03-22T01:04:14.883Z,6.19
2019-03-22T01:05:14.780Z,6.19
2019-03-22T01:06:14.777Z,6.19
2019-03-22T01:07:14.835Z,6.19
2019-03-22T01:08:14.790Z,6.19
2019-03-22T01:09:14.773Z,6.19
2019-03-22T01:10:14.810Z,6.19
2019-03-22T01:11:16.628Z,6.19
2019-03-22T01:12:14.816Z,6.12
2019-03-22T01:13:14.824Z,6.12
2019-03-22T01:14:14.784Z,6.12
2019-03-22T01:15:14.830Z,6.12
2019-03-22T01:16:14.768Z,6.06
2019-03-22T01:17:14.772Z,6
2019-03-22T01:18:14.752Z,6.06
2019-03-22T01:19:14.752Z,6
2019-03-22T01:20:14.745Z,5.94
2019-03-22T01:21:14.778Z,5.94
2019-03-22T01:22:14.763Z,5.87
2019-03-22T01:23:14.777Z,5.87
2019-03-22T01:24:14.763Z,5.87
2019-03-22T01:25:14.798Z,5.87
2019-03-22T01:26:14.779Z,5.87
2019-03-22T01:27:14.810Z,5.87
2019-03-22T01:28:14.757Z,5.87
2019-03-22T01:29:14.734Z,5.87
2019-03-22T01:30:14.759Z,5.87
2019-03-22T01:31:14.739Z,5.87
2019-03-22T01:32:14.899Z,5.81
2019-03-22T01:33:14.754Z,5.87
2019-03-22T01:34:14.729Z,5.87
2019-03-22T01:35:14.772Z,5.81
2019-03-22T01:36:14.723Z,5.87
2019-03-22T01:37:14.739Z,5.87
2019-03-22T01:38:14.751Z,5.87
2019-03-22T01:39:14.758Z,5.81
2019-03-22T01:40:14.776Z,5.87
2019-03-22T01:41:14.738Z,5.81
2019-03-22T01:42:14.734Z,5.81
2019-03-22T01:43:14.740Z,5.75
2019-03-22T01:44:14.797Z,5.81
2019-03-22T01:45:14.763Z,5.75
2019-03-22T01:46:14.730Z,5.75
2019-03-22T01:47:14.716Z,5.75
2019-03-22T01:48:14.735Z,5.75
2019-03-22T01:49:14.737Z,5.75
2019-03-22T01:50:14.749Z,5.75
2019-03-22T01:51:14.752Z,5.75
2019-03-22T01:52:14.685Z,5.69
2019-03-22T01:53:14.743Z,5.75
2019-03-22T01:54:14.727Z,5.69
2019-03-22T01:55:14.726Z,5.62
2019-03-22T01:56:14.738Z,5.62
2019-03-22T01:57:14.696Z,5.56
2019-03-22T01:58:14.719Z,5.56
2019-03-22T01:59:14.701Z,5.56
2019-03-22T02:00:14.702Z,5.56
2019-03-22T02:01:14.692Z,5.56
2019-03-22T02:02:14.705Z,5.56
2019-03-22T02:03:14.770Z,5.56
2019-03-22T02:04:14.749Z,5.56
2019-03-22T02:05:14.711Z,5.5
2019-03-22T02:06:14.684Z,5.56
2019-03-22T02:07:14.746Z,5.56
2019-03-22T02:08:14.720Z,5.5
2019-03-22T02:09:14.745Z,5.56
2019-03-22T02:10:14.707Z,5.56
2019-03-22T02:11:14.676Z,5.56
2019-03-22T02:12:14.748Z,5.5
2019-03-22T02:13:14.736Z,5.56
2019-03-22T02:14:14.693Z,5.5
2019-03-22T02:15:14.714Z,5.44
2019-03-22T02:16:15.058Z,5.44
2019-03-22T02:17:14.686Z,5.44
2019-03-22T02:18:14.692Z,5.44
2019-03-22T02:19:14.682Z,5.37
2019-03-22T02:20:14.682Z,5.44
2019-03-22T02:21:14.665Z,5.44
2019-03-22T02:22:14.704Z,5.37
2019-03-22T02:23:14.670Z,5.37
2019-03-22T02:24:14.681Z,5.37
2019-03-22T02:25:14.668Z,5.37
2019-03-22T02:26:14.679Z,5.37
2019-03-22T02:27:14.677Z,5.25
2019-03-22T02:28:14.703Z,5.25
2019-03-22T02:29:14.764Z,5.25
2019-03-22T02:30:14.817Z,5.19
2019-03-22T02:31:14.647Z,5.19
2019-03-22T02:32:14.664Z,5.12
2019-03-22T02:33:14.741Z,5.12
2019-03-22T02:34:14.695Z,5.12
2019-03-22T02:35:29.953Z,5.12
2019-03-22T02:36:14.689Z,5.12
2019-03-22T02:37:14.786Z,5.12
2019-03-22T02:38:14.758Z,5.12
2019-03-22T02:39:15.148Z,5.12
2019-03-22T02:40:14.803Z,5.12
2019-03-22T02:41:14.710Z,5.06
2019-03-22T02:42:14.707Z,5.06
2019-03-22T02:43:14.645Z,5.06
2019-03-22T02:44:14.711Z,5
2019-03-22T02:45:14.790Z,4.94
2019-03-22T02:46:16.067Z,4.94
2019-03-22T02:47:14.690Z,4.94
2019-03-22T02:48:14.680Z,4.94
2019-03-22T02:49:14.651Z,4.87
2019-03-22T02:50:20.936Z,4.87
2019-03-22T02:51:14.686Z,4.87
2019-03-22T02:52:14.691Z,4.81
2019-03-22T02:53:14.666Z,4.81
2019-03-22T02:54:14.688Z,4.75
2019-03-22T02:55:14.687Z,4.75
2019-03-22T02:56:16.113Z,4.69
2019-03-22T02:57:14.654Z,4.69
2019-03-22T02:58:21.751Z,4.69
2019-03-22T02:59:15.052Z,4.69
2019-03-22T03:00:14.737Z,4.69
2019-03-22T03:01:14.617Z,4.69
2019-03-22T03:02:14.670Z,4.69
2019-03-22T03:03:14.661Z,4.75
2019-03-22T03:04:14.696Z,4.69
2019-03-22T03:05:14.702Z,4.69
2019-03-22T03:06:14.630Z,4.69
2019-03-22T03:07:14.642Z,4.69
2019-03-22T03:08:14.690Z,4.69
2019-03-22T03:09:14.652Z,4.69
2019-03-22T03:10:14.881Z,4.62
2019-03-22T03:11:14.580Z,4.62
2019-03-22T03:12:14.618Z,4.62
2019-03-22T03:13:14.677Z,4.62
2019-03-22T03:14:14.694Z,4.62
2019-03-22T03:15:14.627Z,4.69
2019-03-22T03:16:14.661Z,4.62
2019-03-22T03:17:14.617Z,4.62
2019-03-22T03:18:14.695Z,4.62
2019-03-22T03:19:14.617Z,4.62
2019-03-22T03:20:14.690Z,4.62
2019-03-22T03:21:14.679Z,4.62
2019-03-22T03:22:14.641Z,4.56
2019-03-22T03:23:14.623Z,4.56
2019-03-22T03:24:14.642Z,4.56
2019-03-22T03:25:15.971Z,4.56
2019-03-22T03:26:14.678Z,4.56
2019-03-22T03:27:14.585Z,4.56
2019-03-22T03:28:14.578Z,4.5
2019-03-22T03:29:14.625Z,4.56
2019-03-22T03:30:14.648Z,4.5
2019-03-22T03:31:14.684Z,4.44
2019-03-22T03:32:14.612Z,4.44
2019-03-22T03:33:14.666Z,4.37
2019-03-22T03:34:14.688Z,4.37
2019-03-22T03:35:14.858Z,4.31
2019-03-22T03:36:14.613Z,4.25
2019-03-22T03:37:14.644Z,4.25
2019-03-22T03:38:14.725Z,4.25
2019-03-22T03:39:14.617Z,4.25
2019-03-22T03:40:14.702Z,4.25
2019-03-22T03:41:14.648Z,4.19
2019-03-22T03:42:14.627Z,4.19
2019-03-22T03:43:14.745Z,4.12
2019-03-22T03:44:14.617Z,4.12
2019-03-22T03:45:14.661Z,4.12
2019-03-22T03:46:14.616Z,4.19
2019-03-22T03:47:14.666Z,4.12
2019-03-22T03:48:14.640Z,4.19
2019-03-22T03:49:14.649Z,4.12
2019-03-22T03:50:14.590Z,4.19
2019-03-22T03:51:14.551Z,4.19
2019-03-22T03:52:14.577Z,4.19
2019-03-22T03:53:14.586Z,4.19
2019-03-22T03:54:14.537Z,4.25
2019-03-22T03:55:14.643Z,4.19
2019-03-22T03:56:14.586Z,4.19
2019-03-22T03:57:14.564Z,4.19
2019-03-22T03:58:14.593Z,4.25
2019-03-22T03:59:14.602Z,4.19
2019-03-22T04:00:14.591Z,4.19
2019-03-22T04:01:14.532Z,4.12
2019-03-22T04:02:14.574Z,4.12
2019-03-22T04:03:15.448Z,4.12
2019-03-22T04:04:14.972Z,4.12
2019-03-22T04:05:15.150Z,4.06
2019-03-22T04:06:14.599Z,4
2019-03-22T04:07:14.577Z,4
2019-03-22T04:08:14.559Z,4.06
2019-03-22T04:09:14.599Z,4
2019-03-22T04:10:14.533Z,4
2019-03-22T04:11:14.596Z,4
2019-03-22T04:12:14.689Z,4
2019-03-22T04:13:14.580Z,4
2019-03-22T04:14:14.578Z,4
2019-03-22T04:15:14.525Z,4
2019-03-22T04:16:14.587Z,4
2019-03-22T04:17:14.808Z,3.94
2019-03-22T04:18:14.543Z,4
2019-03-22T04:19:14.535Z,3.94
2019-03-22T04:20:14.502Z,4
2019-03-22T04:21:14.488Z,3.94
2019-03-22T04:22:14.597Z,4
2019-03-22T04:23:14.542Z,4
2019-03-22T04:24:14.558Z,4
2019-03-22T04:25:14.573Z,4
2019-03-22T04:26:14.865Z,4
2019-03-22T04:27:14.539Z,4
2019-03-22T04:28:14.537Z,4.06
2019-03-22T04:29:14.495Z,3.94
2019-03-22T04:30:14.545Z,4
2019-03-22T04:31:14.479Z,4
2019-03-22T04:32:14.549Z,3.94
2019-03-22T04:33:14.523Z,4
2019-03-22T04:34:14.523Z,3.94
2019-03-22T04:35:14.537Z,3.94
2019-03-22T04:36:14.514Z,3.94
2019-03-22T04:37:14.494Z,3.87
2019-03-22T04:38:14.479Z,3.87
2019-03-22T04:39:14.469Z,3.87
2019-03-22T04:40:14.537Z,3.87
2019-03-22T04:41:14.464Z,3.87
2019-03-22T04:42:14.496Z,3.87
2019-03-22T04:43:14.539Z,3.87
2019-03-22T04:44:14.470Z,3.87
2019-03-22T04:45:14.465Z,3.87
2019-03-22T04:46:14.462Z,3.94
2019-03-22T04:47:14.474Z,3.94
2019-03-22T04:48:14.620Z,3.94
2019-03-22T04:49:14.455Z,3.94
2019-03-22T04:50:14.473Z,3.87
2019-03-22T04:51:14.440Z,3.94
2019-03-22T04:52:14.445Z,3.94
2019-03-22T04:53:14.619Z,4
2019-03-22T04:54:14.496Z,3.94
2019-03-22T04:55:14.462Z,3.94
2019-03-22T04:56:14.490Z,3.94
2019-03-22T04:57:14.514Z,4
2019-03-22T04:58:14.502Z,3.94
2019-03-22T04:59:19.910Z,3.94
2019-03-22T05:00:14.510Z,4
2019-03-22T05:01:14.478Z,4
2019-03-22T05:02:14.438Z,4
2019-03-22T05:03:14.491Z,3.94
2019-03-22T05:04:14.464Z,4
2019-03-22T05:05:14.471Z,3.94
2019-03-22T05:06:14.451Z,3.94
2019-03-22T05:07:14.451Z,3.94
2019-03-22T05:08:14.429Z,3.87
2019-03-22T05:09:14.414Z,3.87
2019-03-22T05:10:14.503Z,3.87
2019-03-22T05:11:14.443Z,3.87
2019-03-22T05:12:14.512Z,3.94
2019-03-22T05:13:14.441Z,3.94
2019-03-22T05:14:14.463Z,3.94
2019-03-22T05:15:14.464Z,3.94
2019-03-22T05:16:14.408Z,3.94
2019-03-22T05:17:14.450Z,3.94
2019-03-22T05:18:14.462Z,3.94
2019-03-22T05:19:14.556Z,3.94
2019-03-22T05:20:14.394Z,3.94
2019-03-22T05:21:14.495Z,3.94
2019-03-22T05:22:14.405Z,3.94
2019-03-22T05:23:14.451Z,3.87
2019-03-22T05:24:14.493Z,3.94
2019-03-22T05:25:14.427Z,3.87
2019-03-22T05:26:14.480Z,3.87
2019-03-22T05:27:14.435Z,3.87
2019-03-22T05:28:14.419Z,3.87
2019-03-22T05:29:14.406Z,3.87
2019-03-22T05:30:14.397Z,3.87
2019-03-22T05:31:14.410Z,3.87
2019-03-22T05:32:14.801Z,3.87
2019-03-22T05:33:14.415Z,3.87
2019-03-22T05:34:14.455Z,3.81
2019-03-22T05:35:14.424Z,3.81
2019-03-22T05:36:14.453Z,3.87
2019-03-22T05:37:14.452Z,3.81
2019-03-22T05:38:14.396Z,3.81
2019-03-22T05:39:14.409Z,3.87
2019-03-22T05:40:14.365Z,3.87
2019-03-22T05:41:14.400Z,3.87
2019-03-22T05:42:14.403Z,3.87
2019-03-22T05:43:14.405Z,3.94
2019-03-22T05:44:14.365Z,3.87
2019-03-22T05:45:14.392Z,3.87
2019-03-22T05:46:14.380Z,3.87
2019-03-22T05:47:14.365Z,3.87
2019-03-22T05:48:14.389Z,3.87
2019-03-22T05:49:14.388Z,3.87
2019-03-22T05:50:14.443Z,3.94
2019-03-22T05:51:14.397Z,3.94
2019-03-22T05:52:14.418Z,3.94
2019-03-22T05:53:14.826Z,3.94
2019-03-22T05:54:14.415Z,3.94
2019-03-22T05:55:14.442Z,3.87
2019-03-22T05:56:14.346Z,3.94
2019-03-22T05:57:14.421Z,3.87
2019-03-22T05:58:14.368Z,3.94
2019-03-22T05:59:14.372Z,3.87
2019-03-22T06:00:14.393Z,3.87
2019-03-22T06:01:14.375Z,3.87
2019-03-22T06:02:14.359Z,3.87
2019-03-22T06:03:14.360Z,3.87
2019-03-22T06:04:14.351Z,3.94
2019-03-22T06:05:14.334Z,3.94
2019-03-22T06:06:14.358Z,3.94
2019-03-22T06:07:14.343Z,4
2019-03-22T06:08:14.358Z,4
2019-03-22T06:09:14.404Z,4
2019-03-22T06:10:14.342Z,4
2019-03-22T06:11:14.340Z,4
2019-03-22T06:12:14.332Z,3.94
2019-03-22T06:13:14.357Z,4
2019-03-22T06:14:14.359Z,4
2019-03-22T06:15:14.552Z,3.94
2019-03-22T06:16:14.348Z,4
2019-03-22T06:17:14.342Z,4
2019-03-22T06:18:14.371Z,4
2019-03-22T06:19:14.361Z,4.06
2019-03-22T06:20:14.383Z,4.06
2019-03-22T06:21:14.306Z,4.06
2019-03-22T06:22:14.394Z,4.12
2019-03-22T06:23:14.360Z,4.12
2019-03-22T06:24:14.352Z,4.19
2019-03-22T06:25:14.396Z,4.19
2019-03-22T06:26:15.540Z,4.25
2019-03-22T06:27:14.456Z,4.25
2019-03-22T06:28:14.370Z,4.31
2019-03-22T06:29:14.510Z,4.31
2019-03-22T06:30:14.397Z,4.31
2019-03-22T06:31:14.367Z,4.37
2019-03-22T06:32:14.339Z,4.44
2019-03-22T06:33:14.363Z,4.44
2019-03-22T06:34:14.360Z,4.5
2019-03-22T06:35:14.299Z,4.5
2019-03-22T06:36:14.389Z,4.5
2019-03-22T06:37:14.390Z,4.5
2019-03-22T06:38:14.352Z,4.56
2019-03-22T06:39:14.319Z,4.62
2019-03-22T06:40:14.335Z,4.56
2019-03-22T06:41:14.293Z,4.62
2019-03-22T06:42:14.275Z,4.62
2019-03-22T06:43:14.378Z,4.75
2019-03-22T06:44:14.383Z,4.75
2019-03-22T06:45:14.490Z,4.75
2019-03-22T06:46:14.345Z,4.87
2019-03-22T06:47:14.331Z,4.94
2019-03-22T06:48:14.459Z,4.94
2019-03-22T06:49:14.414Z,5
2019-03-22T06:50:14.354Z,5.06
2019-03-22T06:51:14.358Z,5.12
2019-03-22T06:52:14.370Z,5.12
2019-03-22T06:53:14.305Z,5.19
2019-03-22T06:54:14.298Z,5.19
2019-03-22T06:55:14.294Z,5.25
2019-03-22T06:56:14.273Z,5.31
2019-03-22T06:57:14.430Z,5.31
2019-03-22T06:58:14.807Z,5.37
2019-03-22T06:59:16.125Z,5.37
2019-03-22T07:00:14.350Z,5.37
2019-03-22T07:01:14.439Z,5.44
2019-03-22T07:02:14.479Z,5.44
2019-03-22T07:03:14.246Z,5.44
2019-03-22T07:04:14.335Z,5.44
2019-03-22T07:05:14.369Z,5.37
2019-03-22T07:06:14.322Z,5.44
2019-03-22T07:07:14.339Z,5.44
2019-03-22T07:08:14.269Z,5.5
2019-03-22T07:09:14.270Z,5.44
2019-03-22T07:10:14.298Z,5.44
2019-03-22T07:11:14.247Z,5.44
2019-03-22T07:12:14.311Z,5.37
2019-03-22T07:13:14.353Z,5.44
2019-03-22T07:14:14.297Z,5.44
2019-03-22T07:15:14.329Z,5.44
2019-03-22T07:16:14.258Z,5.5
2019-03-22T07:17:14.260Z,5.5
2019-03-22T07:18:14.308Z,5.5
2019-03-22T07:19:14.350Z,5.5
2019-03-22T07:20:14.491Z,5.5
2019-03-22T07:21:14.292Z,5.56
2019-03-22T07:22:14.391Z,5.56
2019-03-22T07:23:14.237Z,5.62
2019-03-22T07:24:14.263Z,5.62
2019-03-22T07:25:14.289Z,5.69
2019-03-22T07:26:14.227Z,5.69
2019-03-22T07:27:14.238Z,5.69
2019-03-22T07:28:14.310Z,5.75
2019-03-22T07:29:14.307Z,5.81
2019-03-22T07:30:19.661Z,5.81
2019-03-22T07:31:14.253Z,5.87
2019-03-22T07:32:14.268Z,5.94
2019-03-22T07:33:14.263Z,6
2019-03-22T07:34:14.265Z,6
2019-03-22T07:35:14.266Z,6.12
2019-03-22T07:36:14.214Z,6.19
2019-03-22T07:37:14.254Z,6.25
2019-03-22T07:38:14.281Z,6.37
2019-03-22T07:39:14.248Z,6.37
2019-03-22T07:40:14.316Z,6.44
2019-03-22T07:41:14.622Z,6.5
2019-03-22T07:42:14.237Z,6.56
2019-03-22T07:43:14.240Z,6.69
2019-03-22T07:44:14.225Z,6.69
2019-03-22T07:45:14.212Z,6.75
2019-03-22T07:46:16.079Z,6.81
2019-03-22T07:47:14.214Z,6.81
2019-03-22T07:48:14.222Z,6.94
2019-03-22T07:49:14.183Z,7
2019-03-22T07:50:14.196Z,7.06
2019-03-22T07:51:14.273Z,7.06
2019-03-22T07:52:14.259Z,7.12
2019-03-22T07:53:14.246Z,7.19
2019-03-22T07:54:14.234Z,7.19
2019-03-22T07:55:14.255Z,7.25
2019-03-22T07:56:14.230Z,7.31
2019-03-22T07:57:14.202Z,7.37
2019-03-22T07:58:14.201Z,7.5
2019-03-22T07:59:14.187Z,7.69
2019-03-22T08:00:14.185Z,7.81
2019-03-22T08:01:14.208Z,7.81
2019-03-22T08:02:14.287Z,7.94
2019-03-22T08:03:14.475Z,8.06
2019-03-22T08:04:15.070Z,8.19
2019-03-22T08:05:14.190Z,8.25
2019-03-22T08:06:14.211Z,8.25
2019-03-22T08:07:14.418Z,8.31
2019-03-22T08:08:14.190Z,8.44
2019-03-22T08:09:14.219Z,8.5
2019-03-22T08:10:14.269Z,8.63
2019-03-22T08:11:14.197Z,8.75
2019-03-22T08:12:14.319Z,8.75
2019-03-22T08:13:14.285Z,8.88
2019-03-22T08:14:16.914Z,8.94
2019-03-22T08:15:14.178Z,9
2019-03-22T08:16:14.180Z,9.06
2019-03-22T08:17:14.250Z,9.06
2019-03-22T08:18:14.174Z,9.06
2019-03-22T08:19:14.190Z,9.19
2019-03-22T08:20:14.337Z,9.25
2019-03-22T08:21:14.203Z,9.25
2019-03-22T08:22:14.193Z,9.25
2019-03-22T08:23:14.290Z,9.38
2019-03-22T08:24:14.581Z,9.38
2019-03-22T08:25:14.358Z,9.44
2019-03-22T08:26:14.195Z,9.44
2019-03-22T08:27:14.209Z,9.5
2019-03-22T08:28:14.414Z,9.5
2019-03-22T08:29:14.237Z,9.63
2019-03-22T08:30:14.303Z,9.56
2019-03-22T08:31:14.288Z,9.63
2019-03-22T08:32:14.268Z,9.69
2019-03-22T08:33:14.255Z,9.75
2019-03-22T08:34:14.243Z,9.81
2019-03-22T08:35:14.313Z,9.88
2019-03-22T08:36:15.422Z,9.88
2019-03-22T08:37:14.303Z,9.94
2019-03-22T08:38:14.305Z,9.94
2019-03-22T08:39:14.353Z,10
2019-03-22T08:40:14.178Z,10.06
2019-03-22T08:41:14.220Z,10.06
2019-03-22T08:42:14.204Z,10.13
2019-03-22T08:43:14.233Z,10.19
2019-03-22T08:44:14.296Z,10.19
2019-03-22T08:45:14.220Z,10.19
2019-03-22T08:46:14.350Z,10.25
2019-03-22T08:47:14.304Z,10.31
2019-03-22T08:48:14.164Z,10.38
2019-03-22T08:49:14.633Z,10.38
2019-03-22T08:50:14.182Z,10.44
2019-03-22T08:51:14.206Z,10.5
2019-03-22T08:52:14.277Z,10.56
2019-03-22T08:53:14.191Z,10.56
2019-03-22T08:54:14.227Z,10.63
2019-03-22T08:55:14.240Z,10.63
2019-03-22T08:56:14.283Z,10.56
2019-03-22T08:57:14.183Z,10.63
2019-03-22T08:58:14.202Z,10.69
2019-03-22T08:59:14.197Z,10.69
2019-03-22T09:00:14.239Z,10.69
2019-03-22T09:01:14.175Z,10.81
2019-03-22T09:02:14.195Z,10.88
2019-03-22T09:03:14.166Z,10.88
2019-03-22T09:04:14.139Z,10.88
2019-03-22T09:05:14.175Z,11
2019-03-22T09:06:14.185Z,11
2019-03-22T09:07:14.270Z,11
2019-03-22T09:08:16.681Z,11
2019-03-22T09:09:14.247Z,11.06
2019-03-22T09:10:14.239Z,11
2019-03-22T09:11:14.351Z,11.12
2019-03-22T09:12:14.201Z,11.12
2019-03-22T09:13:14.338Z,11.12
2019-03-22T09:14:15.284Z,11.25
2019-03-22T09:15:14.184Z,11.25
2019-03-22T09:16:14.176Z,11.31
2019-03-22T09:17:14.171Z,11.38
2019-03-22T09:18:16.178Z,11.44
2019-03-22T09:19:14.182Z,11.44
2019-03-22T09:20:14.301Z,11.44
2019-03-22T09:21:14.168Z,11.38
2019-03-22T09:22:14.201Z,11.5
2019-03-22T09:23:14.217Z,11.56
2019-03-22T09:24:14.128Z,11.56
2019-03-22T09:25:14.213Z,11.63
2019-03-22T09:26:14.089Z,11.63
2019-03-22T09:27:14.172Z,11.69
2019-03-22T09:28:14.192Z,11.69
2019-03-22T09:29:14.225Z,11.63
2019-03-22T09:30:14.211Z,11.69
2019-03-22T09:31:14.153Z,11.75
2019-03-22T09:32:14.123Z,11.81
2019-03-22T09:33:14.170Z,11.81
2019-03-22T09:34:14.152Z,11.81
2019-03-22T09:35:14.257Z,11.88
2019-03-22T09:36:14.190Z,11.88
2019-03-22T09:37:14.123Z,12
2019-03-22T09:38:14.324Z,12
2019-03-22T09:39:14.044Z,12.06
2019-03-22T09:40:14.184Z,12.06
2019-03-22T09:41:14.167Z,12.19
2019-03-22T09:42:14.112Z,12.13
2019-03-22T09:43:14.198Z,12.19
2019-03-22T09:44:14.180Z,12.25
2019-03-22T09:45:15.060Z,12.25
2019-03-22T09:46:14.188Z,12.31
2019-03-22T09:47:17.214Z,12.31
2019-03-22T09:48:14.239Z,12.31
2019-03-22T09:49:14.183Z,12.44
2019-03-22T09:50:14.385Z,12.44
2019-03-22T09:51:14.267Z,12.44
2019-03-22T09:52:14.214Z,12.56
2019-03-22T09:53:14.341Z,12.56
2019-03-22T09:54:14.209Z,12.63
2019-03-22T09:55:15.042Z,12.69
2019-03-22T09:56:14.385Z,12.69
2019-03-22T09:57:14.166Z,12.69
2019-03-22T09:58:14.191Z,12.75
2019-03-22T09:59:14.202Z,12.75
2019-03-22T10:00:14.148Z,12.81
2019-03-22T10:01:25.139Z,12.88
2019-03-22T10:02:14.230Z,12.88
2019-03-22T10:03:14.254Z,12.88
2019-03-22T10:04:14.202Z,12.88
2019-03-22T10:05:14.262Z,12.88
2019-03-22T10:06:14.132Z,12.88
2019-03-22T10:07:14.210Z,12.94
2019-03-22T10:09:14.096Z,13.13
2019-03-22T10:10:14.182Z,13.13
2019-03-22T10:11:14.507Z,13.25
2019-03-22T10:12:14.441Z,13.25
2019-03-22T10:13:14.128Z,13.31
2019-03-22T10:14:14.311Z,13.38
2019-03-22T10:15:14.147Z,13.44
2019-03-22T10:16:14.156Z,13.5
2019-03-22T10:17:14.213Z,13.56
2019-03-22T10:18:14.098Z,13.5
2019-03-22T10:19:14.048Z,13.56
2019-03-22T10:20:14.181Z,13.56
2019-03-22T10:21:23.310Z,13.62
2019-03-22T10:22:14.152Z,13.62
2019-03-22T10:23:14.208Z,13.69
2019-03-22T10:24:14.160Z,13.69
2019-03-22T10:25:14.115Z,13.81
2019-03-22T10:26:14.121Z,13.81
2019-03-22T10:27:16.699Z,13.88
2019-03-22T10:28:14.300Z,13.94
2019-03-22T10:29:14.117Z,14
2019-03-22T10:30:14.106Z,13.94
2019-03-22T10:31:14.286Z,14
2019-03-22T10:32:14.111Z,14
2019-03-22T10:33:23.574Z,14.19
2019-03-22T10:34:14.143Z,14.13
2019-03-22T10:35:26.938Z,14.13
2019-03-22T10:36:14.160Z,14.19
2019-03-22T10:37:14.148Z,14.19
2019-03-22T10:38:32.495Z,14.19
2019-03-22T10:39:14.060Z,14.25
2019-03-22T10:40:14.106Z,14.25
2019-03-22T10:41:14.079Z,14.31
2019-03-22T10:42:14.115Z,14.38
2019-03-22T10:43:14.151Z,14.31
2019-03-22T10:44:14.227Z,14.38
2019-03-22T10:45:14.148Z,14.38
2019-03-22T10:46:14.333Z,14.44
2019-03-22T10:47:14.345Z,14.56
2019-03-22T10:48:14.248Z,14.56
2019-03-22T10:49:14.145Z,14.56
2019-03-22T10:50:14.191Z,14.63
2019-03-22T10:51:14.047Z,14.63
2019-03-22T10:52:14.100Z,14.63
2019-03-22T10:53:14.037Z,14.63
2019-03-22T10:54:14.115Z,14.63
2019-03-22T10:55:31.066Z,14.63
2019-03-22T10:56:13.958Z,14.69
2019-03-22T10:57:14.009Z,14.69
2019-03-22T10:58:21.886Z,14.75
2019-03-22T10:59:13.967Z,14.81
2019-03-22T11:00:13.990Z,14.81
2019-03-22T11:01:14.095Z,14.87
2019-03-22T11:01:27.718Z,15
2019-03-22T11:02:27.704Z,14.94
2019-03-22T11:03:27.917Z,15
2019-03-22T11:04:27.701Z,15
2019-03-22T11:05:27.724Z,14.94
2019-03-22T11:06:27.779Z,15.06
2019-03-22T11:07:27.700Z,15.06
2019-03-22T11:08:27.859Z,15.06
2019-03-22T11:09:27.778Z,15.06
2019-03-22T11:10:27.723Z,15.19
2019-03-22T11:11:27.696Z,15.25
2019-03-22T11:12:27.807Z,15.31
2019-03-22T11:13:27.719Z,15.38
2019-03-22T11:14:27.724Z,15.44
2019-03-22T11:15:27.701Z,15.44
2019-03-22T11:16:28.732Z,15.5
2019-03-22T11:17:27.668Z,15.56
2019-03-22T11:18:37.991Z,15.5
2019-03-22T11:19:27.733Z,15.56
2019-03-22T11:20:27.671Z,15.5
2019-03-22T11:21:27.722Z,15.63
2019-03-22T11:22:27.717Z,15.63
2019-03-22T11:23:27.748Z,15.63
2019-03-22T11:24:27.704Z,15.75
2019-03-22T11:25:27.701Z,15.81
2019-03-22T11:26:27.753Z,15.81
2019-03-22T11:27:27.668Z,15.94
2019-03-22T11:28:27.671Z,16
2019-03-22T11:29:27.686Z,16
2019-03-22T11:30:27.679Z,16.12
2019-03-22T11:31:40.518Z,16.12
2019-03-22T11:32:27.726Z,16.19
2019-03-22T11:33:27.654Z,16.25
2019-03-22T11:34:27.687Z,16.25
2019-03-22T11:35:27.699Z,16.31
2019-03-22T11:36:27.706Z,16.37
2019-03-22T11:37:27.678Z,16.37
2019-03-22T11:38:27.735Z,16.44
2019-03-22T11:39:27.674Z,16.5
2019-03-22T11:40:27.654Z,16.37
2019-03-22T11:41:27.726Z,16.37
2019-03-22T11:42:28.516Z,16.37
2019-03-22T11:43:27.676Z,16.44
2019-03-22T11:44:27.719Z,16.56
2019-03-22T11:45:27.677Z,16.56
2019-03-22T11:46:27.733Z,16.62
2019-03-22T11:47:27.673Z,16.62
2019-03-22T11:48:27.657Z,16.56
2019-03-22T11:49:27.697Z,16.62
2019-03-22T11:50:29.302Z,16.62
2019-03-22T11:51:27.643Z,16.62
2019-03-22T11:52:27.663Z,16.69
2019-03-22T11:53:27.663Z,16.69
2019-03-22T11:54:27.646Z,16.81
2019-03-22T11:55:27.660Z,16.81
2019-03-22T11:56:27.688Z,16.94
2019-03-22T11:57:27.618Z,17
2019-03-22T11:58:27.638Z,17.06
2019-03-22T11:59:27.659Z,17.06
2019-03-22T12:00:27.671Z,17.12
2019-03-22T12:01:27.696Z,17.12
2019-03-22T12:02:27.703Z,17.19
2019-03-22T12:03:27.634Z,17.25
2019-03-22T12:04:27.616Z,17.25
2019-03-22T12:05:27.616Z,17.19
2019-03-22T12:06:27.729Z,17.19
2019-03-22T12:07:27.631Z,17.25
2019-03-22T12:08:27.610Z,17.31
2019-03-22T12:09:27.640Z,17.31
2019-03-22T12:10:27.626Z,17.37
2019-03-22T12:11:27.724Z,17.37
2019-03-22T12:12:27.684Z,17.44
2019-03-22T12:13:27.618Z,17.44
2019-03-22T12:14:27.662Z,17.5
2019-03-22T12:15:27.599Z,17.5
2019-03-22T12:16:27.679Z,17.56
2019-03-22T12:17:27.662Z,17.62
2019-03-22T12:18:27.634Z,17.62
2019-03-22T12:19:27.631Z,17.62
2019-03-22T12:20:27.855Z,17.69
2019-03-22T12:21:27.715Z,17.69
2019-03-22T12:22:27.849Z,17.75
2019-03-22T12:23:27.622Z,17.81
2019-03-22T12:24:27.593Z,17.94
2019-03-22T12:25:27.603Z,17.94
2019-03-22T12:26:27.595Z,17.94
2019-03-22T12:27:37.112Z,17.94
2019-03-22T12:28:27.738Z,17.94
2019-03-22T12:29:28.518Z,18
2019-03-22T12:30:27.656Z,17.94
2019-03-22T12:31:27.582Z,18
2019-03-22T12:32:32.691Z,18
2019-03-22T12:33:27.589Z,18
2019-03-22T12:34:27.958Z,18
2019-03-22T12:35:28.285Z,18.06
2019-03-22T12:36:27.596Z,18
2019-03-22T12:37:27.651Z,18
2019-03-22T12:38:27.585Z,18
2019-03-22T12:39:27.628Z,18
2019-03-22T12:40:27.671Z,18
2019-03-22T12:41:27.618Z,18
2019-03-22T12:42:27.730Z,18
2019-03-22T12:43:27.601Z,18.06
2019-03-22T12:44:27.606Z,18.06
2019-03-22T12:45:27.610Z,18.19
2019-03-22T12:46:27.567Z,18.19
2019-03-22T12:47:27.578Z,18.37
2019-03-22T12:48:27.574Z,18.37
2019-03-22T12:49:27.561Z,18.44
2019-03-22T12:50:27.597Z,18.44
2019-03-22T12:51:27.571Z,18.5
2019-03-22T12:52:27.610Z,18.56
2019-03-22T12:53:27.601Z,18.62
2019-03-22T12:54:27.636Z,18.69
2019-03-22T12:55:27.638Z,18.69
2019-03-22T12:56:27.563Z,18.75
2019-03-22T12:57:27.544Z,18.69
2019-03-22T12:58:27.565Z,18.81
2019-03-22T12:59:27.567Z,18.81
2019-03-22T13:00:27.612Z,18.87
2019-03-22T13:01:27.542Z,18.94
2019-03-22T13:02:27.551Z,18.94
2019-03-22T13:03:27.683Z,19
2019-03-22T13:04:27.620Z,19
2019-03-22T13:05:27.570Z,19.12
2019-03-22T13:06:27.517Z,19.12
2019-03-22T13:07:27.576Z,19.06
2019-03-22T13:08:27.586Z,19.06
2019-03-22T13:09:27.552Z,19.06
2019-03-22T13:10:27.610Z,19
2019-03-22T13:11:27.536Z,19.06
2019-03-22T13:12:27.594Z,19.12
2019-03-22T13:13:27.546Z,19.25
2019-03-22T13:14:27.637Z,19.37
2019-03-22T13:15:27.570Z,19.44
2019-03-22T13:16:27.565Z,19.5
2019-03-22T13:17:27.527Z,19.62
2019-03-22T13:18:27.512Z,19.69